Date,TemperatureHighF,TemperatureAvgF,TemperatureLowF,DewpointHighF,DewpointAvgF,DewpointLowF,HumidityHigh,HumidityAvg,HumidityLow,PressureMaxIn,PressureMinIn,WindSpeedMaxMPH,WindSpeedAvgMPH,GustSpeedMaxMPH,PrecipitationSumIn
2013-3-1,42.4,37.9,34.5,31.4,29.7,26.8,88,72,64,29.89,29.83,2,1,9,0.00
2013-3-2,39.4,35.0,32.4,31.9,28.5,24.0,92,77,63,30.00,29.82,4,1,11,0.03
2013-3-3,42.6,32.1,23.5,24.4,20.8,17.8,81,64,41,30.03,29.97,4,2,11,0.00
2013-3-4,59.9,39.8,21.2,31.8,24.0,17.6,88,59,21,30.11,29.90,3,0,7,0.00
2013-3-5,56.7,48.9,37.6,54.2,40.9,25.8,95,74,52,29.94,29.58,7,2,23,0.65
2013-3-6,41.9,35.6,32.9,29.7,26.0,21.0,75,68,58,30.17,29.84,5,3,15,0.00
2013-3-7,51.8,38.3,30.2,33.8,28.8,25.7,83,69,46,30.26,30.15,4,1,11,0.00
2013-3-8,66.0,42.2,29.1,31.8,26.7,21.4,84,60,19,30.29,30.19,4,1,11,0.00
2013-3-9,64.2,47.9,32.7,36.9,31.0,27.4,83,56,28,30.23,30.08,3,0,10,0.00
2013-3-10,72.9,57.4,43.0,37.3,34.2,29.7,78,46,21,30.08,29.97,4,2,16,0.00
2013-3-11,61.7,54.3,43.0,54.7,49.4,37.2,96,84,71,29.93,29.76,5,2,19,0.92
2013-3-12,61.5,45.8,34.5,37.1,32.9,30.3,85,63,34,30.12,29.92,3,2,11,0.00
2013-3-13,51.6,39.1,29.1,31.6,25.3,19.1,91,61,33,30.33,30.09,5,2,15,0.00
2013-3-14,61.3,40.2,26.8,34.0,21.6,14.8,76,52,16,30.39,30.23,4,1,9,0.00
2013-3-15,78.1,54.6,30.0,45.5,38.1,27.7,93,59,28,30.25,29.93,4,1,13,0.00
2013-3-16,82.2,66.0,54.7,50.3,45.7,42.8,74,50,28,29.93,29.82,5,1,17,0.00
2013-3-17,77.2,63.6,51.1,54.4,48.7,44.3,80,60,35,29.97,29.86,3,1,14,0.00
2013-3-18,64.0,57.1,51.6,56.3,53.4,48.7,97,88,73,29.91,29.76,4,2,15,0.47
2013-3-19,66.7,51.0,34.2,53.1,30.9,13.7,97,52,20,30.13,29.89,4,2,13,0.00
2013-3-20,61.3,45.9,33.8,33.0,23.8,9.8,82,49,14,30.14,29.91,6,2,14,0.00
2013-3-21,50.2,35.4,24.8,26.5,15.4,10.0,72,46,21,30.04,29.93,4,2,13,0.00
2013-3-22,48.7,39.3,28.8,35.3,23.8,17.8,80,55,35,30.06,29.98,2,0,6,0.01
2013-3-23,56.1,46.4,38.7,45.8,41.0,35.3,94,82,65,30.00,29.76,2,0,8,0.18
2013-3-24,63.9,50.6,41.2,55.2,45.4,29.6,97,83,57,29.79,29.43,6,2,22,1.22
2013-3-25,40.8,36.7,32.7,28.0,24.9,23.0,76,62,56,30.07,29.71,4,2,17,0.00
2013-3-26,41.0,35.7,30.4,29.2,26.7,24.7,80,70,56,30.30,30.05,4,2,14,0.00
2013-3-27,56.8,40.1,24.8,30.7,25.8,22.3,93,61,28,30.35,30.25,4,1,14,0.00
2013-3-28,63.7,43.5,25.5,33.7,28.8,22.8,90,62,29,30.35,30.23,4,1,12,0.00
2013-3-29,57.4,43.7,30.0,41.5,34.7,27.5,91,73,37,30.34,30.20,2,1,11,0.00
2013-3-30,69.1,53.1,43.0,53.7,45.9,41.1,96,80,42,30.21,29.97,2,0,8,0.27
2013-3-31,69.1,58.9,52.0,60.2,55.7,50.9,98,90,64,29.97,29.85,2,0,11,0.42